Time;durP1;ratioP1;P1;durP2;ratioP2;P2;SDS_P1;SDS_P2;PMS_P1;PMS_P2;Temp;Humidity;BMP_temperature;BMP_pressure;BME280_temperature;BME280_humidity;BME280_pressure;Samples;Min_cycle;Max_cycle;Signal;HPM_P1;HPM_P2
2024/01/22 00:00:20;;;;;;;44.63;23.13;;;;;;;-6.75;100.00;97664.09;4978522;28;20133;-74
2024/01/22 00:02:45;;;;;;;43.70;22.38;;;;;;;-6.87;100.00;97668.59;4980804;28;20384;-74
2024/01/22 00:05:11;;;;;;;40.58;23.00;;;;;;;-6.93;100.00;97665.03;4996098;28;20073;-75
2024/01/22 00:07:36;;;;;;;47.78;24.05;;;;;;;-6.96;100.00;97659.34;4984488;28;20101;-73
2024/01/22 00:10:03;;;;;;;43.65;21.88;;;;;;;-7.00;100.00;97661.66;4990819;28;20051;-78
2024/01/22 00:12:30;;;;;;;45.28;22.38;;;;;;;-7.12;100.00;97666.94;4984134;28;20133;-75
2024/01/22 00:14:56;;;;;;;46.05;22.65;;;;;;;-7.15;100.00;97656.78;4983747;28;20046;-76
2024/01/22 00:17:22;;;;;;;50.00;23.38;;;;;;;-7.06;100.00;97648.44;4988605;28;20116;-74
2024/01/22 00:19:47;;;;;;;48.67;24.17;;;;;;;-7.04;100.00;97660.50;4982511;28;20070;-75
2024/01/22 00:22:13;;;;;;;42.58;22.33;;;;;;;-6.97;100.00;97655.88;4964143;28;20137;-74
2024/01/22 00:24:39;;;;;;;44.13;22.92;;;;;;;-6.94;100.00;97662.59;4988995;28;20038;-75
2024/01/22 00:27:05;;;;;;;42.67;22.40;;;;;;;-6.91;100.00;97656.81;4987164;28;20084;-75
2024/01/22 00:29:30;;;;;;;40.20;21.25;;;;;;;-7.01;100.00;97654.69;4996235;28;20516;-74
2024/01/22 00:31:56;;;;;;;45.42;21.73;;;;;;;-7.05;100.00;97648.22;4998368;28;20057;-75
2024/01/22 00:34:21;;;;;;;42.33;21.65;;;;;;;-7.12;100.00;97644.84;4999662;28;20046;-74
2024/01/22 00:36:46;;;;;;;49.95;23.08;;;;;;;-7.58;100.00;97623.25;4995228;28;20082;-74
2024/01/22 00:39:12;;;;;;;43.15;22.95;;;;;;;-7.94;100.00;97605.53;4978120;28;20051;-74
2024/01/22 00:41:37;;;;;;;40.35;20.25;;;;;;;-7.81;100.00;97602.69;4995968;28;20057;-75
2024/01/22 00:44:03;;;;;;;42.40;20.90;;;;;;;-7.81;100.00;97631.13;4982626;28;20351;-73
2024/01/22 00:46:28;;;;;;;41.40;20.00;;;;;;;-7.56;100.00;97622.97;4976754;28;20061;-72
2024/01/22 00:48:53;;;;;;;38.40;20.35;;;;;;;-7.54;100.00;97608.44;4982499;28;20050;-72
2024/01/22 00:51:19;;;;;;;33.83;19.77;;;;;;;-7.40;100.00;97613.53;4981480;28;20397;-73
2024/01/22 00:53:44;;;;;;;37.72;20.15;;;;;;;-7.50;100.00;97595.47;4986229;28;20049;-75
2024/01/22 00:56:09;;;;;;;36.40;20.35;;;;;;;-7.74;100.00;97597.25;4980519;28;20053;-74
2024/01/22 00:58:35;;;;;;;37.13;19.75;;;;;;;-7.62;100.00;97594.66;4979575;28;20054;-73
2024/01/22 01:01:00;;;;;;;37.17;19.33;;;;;;;-7.36;100.00;97606.75;4980039;28;20050;-73
2024/01/22 01:03:26;;;;;;;31.55;17.58;;;;;;;-7.31;100.00;97613.00;4987103;28;20042;-72
2024/01/22 01:05:51;;;;;;;33.60;18.38;;;;;;;-7.24;100.00;97606.75;4988536;28;20047;-73
2024/01/22 01:08:16;;;;;;;41.40;19.50;;;;;;;-7.21;100.00;97608.94;4976954;28;20038;-73
2024/01/22 01:10:42;;;;;;;42.25;19.73;;;;;;;-7.21;100.00;97615.06;4975004;28;20182;-73
2024/01/22 01:13:07;;;;;;;35.97;19.73;;;;;;;-7.27;100.00;97615.19;4976963;28;20093;-73
2024/01/22 01:15:33;;;;;;;36.60;20.02;;;;;;;-7.31;100.00;97618.31;4999190;28;20042;-73
2024/01/22 01:17:58;;;;;;;36.10;20.13;;;;;;;-7.47;100.00;97618.16;4990230;28;20050;-74
2024/01/22 01:20:23;;;;;;;36.80;19.60;;;;;;;-7.47;100.00;97620.81;4979942;28;20358;-72
2024/01/22 01:22:49;;;;;;;34.88;20.10;;;;;;;-7.26;100.00;97619.47;4983294;28;20046;-73
2024/01/22 01:25:14;;;;;;;39.13;21.17;;;;;;;-7.28;100.00;97614.38;4978585;28;20556;-73
2024/01/22 01:27:39;;;;;;;36.88;19.65;;;;;;;-7.19;100.00;97609.53;4980327;28;20062;-73
2024/01/22 01:30:06;;;;;;;36.92;21.33;;;;;;;-7.12;100.00;97611.03;4983823;28;20508;-72
2024/01/22 01:32:32;;;;;;;39.47;20.10;;;;;;;-7.04;100.00;97614.41;4990757;28;20046;-74
2024/01/22 01:34:57;;;;;;;37.00;20.60;;;;;;;-7.10;100.00;97605.47;4987986;28;20050;-73
2024/01/22 01:37:22;;;;;;;35.45;19.42;;;;;;;-7.38;100.00;97603.47;4977010;28;20137;-73
2024/01/22 01:39:48;;;;;;;42.28;20.65;;;;;;;-7.22;100.00;97602.00;4986690;28;20119;-73
2024/01/22 01:42:13;;;;;;;35.35;19.17;;;;;;;-7.24;100.00;97588.09;4996453;28;20669;-74
2024/01/22 01:44:38;;;;;;;38.90;20.13;;;;;;;-7.48;100.00;97579.28;4981008;28;20405;-74
2024/01/22 01:47:04;;;;;;;39.17;19.20;;;;;;;-7.68;100.00;97589.19;4987615;28;20144;-72
2024/01/22 01:49:30;;;;;;;37.20;20.38;;;;;;;-7.64;100.00;97583.41;4997725;28;20038;-74
2024/01/22 01:51:57;;;;;;;41.53;21.38;;;;;;;-7.73;100.00;97572.28;4989716;28;20064;-74
2024/01/22 01:54:27;;;;;;;40.15;19.80;;;;;;;-7.83;100.00;97564.88;4994108;28;20095;-74
2024/01/22 01:56:53;;;;;;;39.65;20.75;;;;;;;-7.57;100.00;97558.31;4995398;28;20384;-74
2024/01/22 01:59:19;;;;;;;43.58;22.52;;;;;;;-7.54;100.00;97547.22;4988946;28;20042;-74
2024/01/22 02:01:44;;;;;;;41.97;21.55;;;;;;;-7.42;100.00;97543.78;5009976;28;20044;-73
2024/01/22 02:04:10;;;;;;;39.47;20.73;;;;;;;-7.31;100.00;97550.94;5001858;28;20420;-73
2024/01/22 02:06:35;;;;;;;40.05;21.23;;;;;;;-7.23;100.00;97541.81;5015451;28;20080;-74
2024/01/22 02:09:00;;;;;;;39.25;21.17;;;;;;;-7.27;100.00;97525.50;4993106;28;20053;-72
2024/01/22 02:11:26;;;;;;;44.92;21.58;;;;;;;-7.39;100.00;97522.03;4970273;28;20050;-75
2024/01/22 02:13:52;;;;;;;37.72;21.17;;;;;;;-7.46;100.00;97522.13;4987446;28;20049;-74
2024/01/22 02:16:18;;;;;;;38.67;20.23;;;;;;;-7.37;100.00;97528.72;4977790;28;20038;-74
2024/01/22 02:18:44;;;;;;;41.17;20.58;;;;;;;-7.33;100.00;97532.56;4987922;28;20043;-72
2024/01/22 02:21:09;;;;;;;45.72;22.00;;;;;;;-7.32;100.00;97534.16;4959288;28;20038;-75
2024/01/22 02:23:35;;;;;;;45.95;21.70;;;;;;;-7.30;100.00;97534.75;4994542;28;20057;-74
2024/01/22 02:26:00;;;;;;;43.58;21.55;;;;;;;-7.45;100.00;97528.25;4981294;28;20090;-73
2024/01/22 02:28:28;;;;;;;46.40;21.52;;;;;;;-7.59;100.00;97525.81;4976696;28;20046;-73
2024/01/22 02:30:53;;;;;;;46.58;22.15;;;;;;;-7.52;100.00;97515.09;4995884;28;20049;-74
2024/01/22 02:33:19;;;;;;;46.60;21.95;;;;;;;-7.58;100.00;97503.50;4997382;28;20140;-74
2024/01/22 02:35:44;;;;;;;42.78;21.02;;;;;;;-7.77;100.00;97509.97;4981570;28;20050;-74
2024/01/22 02:38:09;;;;;;;44.50;21.73;;;;;;;-7.95;100.00;97502.88;4983075;28;20046;-74
2024/01/22 02:40:35;;;;;;;43.72;21.85;;;;;;;-8.06;100.00;97501.81;4981216;28;20042;-73
2024/01/22 02:43:00;;;;;;;46.05;22.00;;;;;;;-8.02;100.00;97492.31;4991465;28;20333;-73
2024/01/22 02:45:26;;;;;;;41.13;20.88;;;;;;;-7.96;100.00;97490.59;4982711;28;20105;-73
2024/01/22 02:47:51;;;;;;;43.38;21.83;;;;;;;-8.02;100.00;97486.22;4980365;28;20225;-74
2024/01/22 02:50:16;;;;;;;42.22;20.40;;;;;;;-7.93;100.00;97485.63;4975232;28;20042;-74
2024/01/22 02:52:42;;;;;;;42.05;21.42;;;;;;;-7.81;100.00;97479.53;4981696;28;20681;-74
2024/01/22 02:55:07;;;;;;;47.38;21.25;;;;;;;-7.59;100.00;97472.63;4977233;28;20046;-73
2024/01/22 02:57:33;;;;;;;45.53;21.75;;;;;;;-7.42;100.00;97470.06;4980504;28;20523;-74
2024/01/22 02:59:58;;;;;;;45.65;20.92;;;;;;;-7.22;100.00;97463.56;4981993;28;20053;-73
2024/01/22 03:02:24;;;;;;;42.72;20.42;;;;;;;-7.25;100.00;97459.53;4985829;28;20439;-73
2024/01/22 03:04:49;;;;;;;48.35;22.50;;;;;;;-7.25;100.00;97458.72;4986404;28;20050;-73
2024/01/22 03:07:14;;;;;;;46.22;21.30;;;;;;;-7.21;100.00;97438.56;4976687;28;20413;-73
2024/01/22 03:09:40;;;;;;;41.58;20.55;;;;;;;-7.27;100.00;97445.66;4976873;28;20050;-74
2024/01/22 03:12:05;;;;;;;41.30;22.50;;;;;;;-7.16;100.00;97450.13;4963842;28;20516;-74
2024/01/22 03:14:31;;;;;;;48.10;21.80;;;;;;;-7.24;100.00;97447.81;4983790;28;20491;-73
2024/01/22 03:16:56;;;;;;;39.47;21.10;;;;;;;-7.32;100.00;97433.03;4985147;28;20050;-74
2024/01/22 03:19:22;;;;;;;41.85;20.17;;;;;;;-7.32;100.00;97425.03;4975820;28;20074;-73
2024/01/22 03:21:47;;;;;;;43.15;20.92;;;;;;;-7.36;100.00;97428.41;4980645;28;20539;-73
2024/01/22 03:24:13;;;;;;;45.60;21.90;;;;;;;-7.23;100.00;97419.38;4974309;28;20101;-73
2024/01/22 03:26:38;;;;;;;43.53;21.17;;;;;;;-7.26;100.00;97409.97;4981001;28;20030;-73
2024/01/22 03:29:03;;;;;;;50.05;21.35;;;;;;;-7.22;100.00;97399.66;4975689;28;20034;-73
2024/01/22 03:31:29;;;;;;;41.28;20.33;;;;;;;-7.26;100.00;97398.53;4985717;28;20051;-73
2024/01/22 03:33:56;;;;;;;38.53;20.33;;;;;;;-7.20;100.00;97409.06;4980086;28;20053;-73
2024/01/22 03:36:23;;;;;;;39.70;20.67;;;;;;;-7.21;100.00;97420.75;4986103;28;21023;-73
2024/01/22 03:38:49;;;;;;;46.25;22.08;;;;;;;-7.32;100.00;97421.56;4968357;28;20042;-75
2024/01/22 03:41:14;;;;;;;45.70;20.70;;;;;;;-7.37;100.00;97416.94;4975950;28;20035;-74
2024/01/22 03:43:44;;;;;;;44.85;20.42;;;;;;;-7.26;100.00;97423.28;4988344;28;20070;-73
2024/01/22 03:46:10;;;;;;;40.70;20.50;;;;;;;-7.25;100.00;97427.59;4975863;28;20130;-73
2024/01/22 03:48:36;;;;;;;48.17;22.10;;;;;;;-7.41;100.00;97423.78;4986869;28;20093;-72
2024/01/22 03:51:01;;;;;;;43.42;21.08;;;;;;;-7.35;100.00;97416.72;4987430;28;20381;-74
2024/01/22 03:53:27;;;;;;;43.03;22.35;;;;;;;-7.20;100.00;97421.53;4981178;28;20066;-74
2024/01/22 03:55:53;;;;;;;44.45;20.10;;;;;;;-7.19;100.00;97418.66;4976073;28;20077;-75
2024/01/22 03:58:18;;;;;;;49.80;22.60;;;;;;;-7.11;100.00;97414.84;4979031;28;20108;-74
2024/01/22 04:00:43;;;;;;;43.22;20.88;;;;;;;-7.21;100.00;97415.41;4996992;28;20038;-71
2024/01/22 04:03:09;;;;;;;45.33;21.42;;;;;;;-7.52;100.00;97406.78;4996630;28;20128;-72
2024/01/22 04:05:35;;;;;;;48.13;22.63;;;;;;;-7.84;100.00;97424.16;4986682;28;20038;-72
2024/01/22 04:08:00;;;;;;;51.45;22.77;;;;;;;-8.07;100.00;97407.97;4987512;28;20046;-74
2024/01/22 04:10:26;;;;;;;47.60;21.23;;;;;;;-7.86;100.00;97412.94;4978266;28;20452;-73
2024/01/22 04:12:55;;;;;;;45.38;21.23;;;;;;;-7.67;100.00;97425.06;4985257;28;20053;-74
2024/01/22 04:15:21;;;;;;;42.72;22.27;;;;;;;-7.44;100.00;97420.78;4985801;28;20053;-74
2024/01/22 04:17:46;;;;;;;45.20;22.05;;;;;;;-7.60;100.00;97412.44;4998667;28;20077;-71
2024/01/22 04:20:12;;;;;;;46.20;21.60;;;;;;;-7.55;100.00;97403.78;4982532;28;20485;-73
2024/01/22 04:22:37;;;;;;;45.53;22.73;;;;;;;-7.33;100.00;97404.81;4990245;28;20054;-73
2024/01/22 04:25:03;;;;;;;48.75;24.08;;;;;;;-7.29;100.00;97410.47;4980788;28;20039;-70
2024/01/22 04:27:29;;;;;;;52.67;24.88;;;;;;;-7.36;100.00;97391.16;4990995;28;20144;-72
2024/01/22 04:29:54;;;;;;;44.28;21.20;;;;;;;-7.38;100.00;97385.22;4998735;28;20057;-74
2024/01/22 04:32:20;;;;;;;48.25;23.23;;;;;;;-7.30;100.00;97391.00;4982088;28;20109;-74
2024/01/22 04:34:46;;;;;;;50.20;23.55;;;;;;;-7.05;100.00;97397.91;4999039;28;20144;-73
2024/01/22 04:37:12;;;;;;;48.40;23.35;;;;;;;-6.79;100.00;97391.22;4977327;28;20037;-74
2024/01/22 04:39:39;;;;;;;48.53;21.95;;;;;;;-6.71;100.00;97389.22;4991610;28;20035;-74
2024/01/22 04:42:05;;;;;;;45.13;21.70;;;;;;;-6.61;100.00;97392.06;4994773;28;20125;-73
2024/01/22 04:44:30;;;;;;;42.83;19.95;;;;;;;-6.54;100.00;97384.72;4987002;28;20148;-74
2024/01/22 04:46:56;;;;;;;46.05;21.98;;;;;;;-6.66;100.00;97395.44;5000488;28;20054;-75
2024/01/22 04:49:22;;;;;;;49.55;23.00;;;;;;;-7.08;100.00;97384.25;4999044;28;20515;-72
2024/01/22 04:51:47;;;;;;;45.42;21.83;;;;;;;-7.05;100.00;97389.91;5002161;28;20182;-74
2024/01/22 04:54:13;;;;;;;48.70;25.73;;;;;;;-6.96;100.00;97393.81;5015890;28;20065;-73
2024/01/22 04:56:45;;;;;;;83.57;46.50;;;;;;;-6.99;100.00;97386.28;4990705;28;20045;-75
2024/01/22 04:59:12;;;;;;;77.28;39.58;;;;;;;-7.01;100.00;97388.38;5002380;28;20580;-74
2024/01/22 05:01:37;;;;;;;46.95;22.83;;;;;;;-6.84;100.00;97391.13;4996687;28;20034;-74
2024/01/22 05:04:04;;;;;;;44.08;22.00;;;;;;;-6.81;100.00;97379.16;4988939;28;20603;-71
2024/01/22 05:06:30;;;;;;;43.92;20.90;;;;;;;-6.76;100.00;97384.59;4997468;28;20575;-72
2024/01/22 05:08:55;;;;;;;43.05;21.63;;;;;;;-6.70;100.00;97386.28;4993978;28;20034;-74
2024/01/22 05:11:21;;;;;;;42.72;21.52;;;;;;;-6.59;100.00;97395.28;4965678;28;20124;-74
2024/01/22 05:13:48;;;;;;;44.33;20.80;;;;;;;-6.58;100.00;97395.03;5000873;28;20170;-74
2024/01/22 05:16:15;;;;;;;41.97;18.98;;;;;;;-6.54;100.00;97388.19;4987687;28;20038;-72
2024/01/22 05:18:40;;;;;;;41.58;20.33;;;;;;;-6.59;100.00;97389.94;4994599;28;20052;-73
2024/01/22 05:21:06;;;;;;;43.03;21.10;;;;;;;-6.71;100.00;97378.56;4979198;28;20048;-74
2024/01/22 05:23:31;;;;;;;40.17;20.35;;;;;;;-6.76;100.00;97385.41;4989142;28;20728;-72
2024/01/22 05:25:57;;;;;;;46.08;21.25;;;;;;;-6.68;100.00;97389.56;5000407;28;20062;-73
2024/01/22 05:28:22;;;;;;;44.13;20.13;;;;;;;-6.59;100.00;97387.28;4994579;28;20662;-73
2024/01/22 05:30:47;;;;;;;42.72;20.15;;;;;;;-6.64;100.00;97388.03;4990891;28;20127;-73
2024/01/22 05:33:13;;;;;;;47.13;20.35;;;;;;;-6.67;100.00;97391.16;5006074;28;20034;-72
2024/01/22 05:35:38;;;;;;;40.80;22.02;;;;;;;-6.74;100.00;97390.50;5014752;28;20050;-72
2024/01/22 05:38:04;;;;;;;43.17;22.17;;;;;;;-6.99;100.00;97394.28;4991964;28;20109;-72
2024/01/22 05:40:29;;;;;;;40.20;20.50;;;;;;;-7.07;100.00;97394.66;4994199;28;20459;-72
2024/01/22 05:42:55;;;;;;;39.78;19.75;;;;;;;-7.06;100.00;97414.09;4993290;28;20038;-73
2024/01/22 05:45:20;;;;;;;45.72;21.35;;;;;;;-6.97;100.00;97389.56;4981600;28;20156;-73
2024/01/22 05:47:46;;;;;;;48.22;22.58;;;;;;;-6.84;100.00;97393.78;5002812;28;20042;-72
2024/01/22 05:50:11;;;;;;;46.90;22.65;;;;;;;-6.80;100.00;97394.13;5009486;28;20081;-73
2024/01/22 05:52:37;;;;;;;46.08;22.33;;;;;;;-6.98;100.00;97371.94;4995574;28;20129;-73
2024/01/22 05:55:02;;;;;;;45.72;22.90;;;;;;;-7.11;100.00;97373.03;4998488;28;20516;-72
2024/01/22 05:57:28;;;;;;;46.65;22.48;;;;;;;-7.11;100.00;97377.56;4990668;28;20042;-74
2024/01/22 05:59:53;;;;;;;44.40;21.52;;;;;;;-7.15;100.00;97381.72;5003606;28;20564;-73
2024/01/22 06:02:19;;;;;;;48.35;21.83;;;;;;;-6.86;100.00;97392.38;4997453;28;20048;-73
2024/01/22 06:04:44;;;;;;;43.63;19.83;;;;;;;-6.82;100.00;97391.69;4997839;28;20042;-74
2024/01/22 06:07:09;;;;;;;45.50;21.27;;;;;;;-6.84;100.00;97376.97;4993409;28;20069;-74
2024/01/22 06:09:35;;;;;;;48.72;21.30;;;;;;;-6.98;100.00;97385.25;4995072;28;20464;-73
2024/01/22 06:12:00;;;;;;;51.35;22.08;;;;;;;-7.16;100.00;97388.09;4990082;28;20078;-74
2024/01/22 06:14:26;;;;;;;51.38;23.13;;;;;;;-7.16;100.00;97386.25;4997369;28;20048;-73
2024/01/22 06:16:52;;;;;;;58.75;27.35;;;;;;;-7.16;100.00;97386.25;4991785;28;20049;-74
2024/01/22 06:19:17;;;;;;;50.63;25.05;;;;;;;-7.17;100.00;97378.47;4991836;28;20042;-73
2024/01/22 06:21:44;;;;;;;69.20;37.67;;;;;;;-7.16;100.00;97382.78;5001797;28;20048;-74
2024/01/22 06:24:09;;;;;;;63.63;28.48;;;;;;;-6.88;100.00;97383.84;4985863;28;20070;-74
2024/01/22 06:26:35;;;;;;;50.58;24.73;;;;;;;-6.61;100.00;97400.88;5004162;28;20107;-73
2024/01/22 06:29:00;;;;;;;53.58;24.90;;;;;;;-6.21;100.00;97391.13;4995309;28;20073;-74
2024/01/22 06:31:26;;;;;;;52.78;24.52;;;;;;;-6.08;100.00;97379.38;4995095;28;20069;-73
2024/01/22 06:33:51;;;;;;;50.15;24.90;;;;;;;-6.08;100.00;97374.03;4999018;28;20082;-74
2024/01/22 06:36:17;;;;;;;45.63;23.25;;;;;;;-6.07;100.00;97395.09;5003581;28;20111;-73
2024/01/22 06:38:43;;;;;;;47.22;23.98;;;;;;;-5.96;100.00;97380.06;4994528;28;20543;-72
2024/01/22 06:41:11;;;;;;;50.15;23.60;;;;;;;-5.94;100.00;97375.28;4994933;28;20069;-73
2024/01/22 06:43:38;;;;;;;54.15;24.65;;;;;;;-6.02;100.00;97375.72;4994967;28;20041;-73
2024/01/22 06:46:03;;;;;;;51.95;24.67;;;;;;;-6.00;100.00;97376.28;5004440;28;20042;-72
2024/01/22 06:48:29;;;;;;;49.35;23.63;;;;;;;-5.87;100.00;97364.44;4987695;28;20508;-74
2024/01/22 06:50:54;;;;;;;48.70;24.63;;;;;;;-5.83;100.00;97361.03;4998656;28;20038;-73
2024/01/22 06:53:20;;;;;;;53.88;26.35;;;;;;;-5.69;100.00;97369.50;4993094;28;20497;-72
2024/01/22 06:55:45;;;;;;;56.35;27.63;;;;;;;-5.45;100.00;97361.28;4990283;28;20429;-74
2024/01/22 06:58:10;;;;;;;54.63;26.15;;;;;;;-5.28;100.00;97364.69;5007199;28;20041;-72
2024/01/22 07:00:36;;;;;;;53.10;26.63;;;;;;;-5.17;100.00;97370.97;5002614;28;20120;-74
2024/01/22 07:03:05;;;;;;;47.63;25.63;;;;;;;-5.03;100.00;97374.88;5001993;28;20077;-72
2024/01/22 07:05:33;;;;;;;56.50;26.70;;;;;;;-4.94;100.00;97369.09;4996257;28;20050;-73
2024/01/22 07:07:58;;;;;;;49.80;26.17;;;;;;;-4.90;100.00;97371.00;5006543;28;20049;-72
2024/01/22 07:10:23;;;;;;;51.92;25.58;;;;;;;-4.76;100.00;97379.44;4994845;28;20608;-73
2024/01/22 07:12:49;;;;;;;53.40;24.65;;;;;;;-4.53;100.00;97374.88;5004915;28;20097;-74
2024/01/22 07:15:15;;;;;;;51.83;26.30;;;;;;;-4.44;100.00;97368.81;4998370;28;20460;-73
2024/01/22 07:17:41;;;;;;;50.42;24.50;;;;;;;-4.38;100.00;97361.63;4998492;28;20080;-72
2024/01/22 07:20:16;;;;;;;54.45;27.70;;;;;;;-4.31;100.00;97370.25;4993215;28;20058;-73
2024/01/22 07:22:43;;;;;;;53.80;27.05;;;;;;;-4.12;100.00;97376.03;4987307;28;20056;-74
2024/01/22 07:25:10;;;;;;;48.38;24.20;;;;;;;-3.99;100.00;97371.34;4995999;28;20097;-71
2024/01/22 07:27:39;;;;;;;55.70;26.05;;;;;;;-3.88;100.00;97373.00;5002565;28;20397;-74
2024/01/22 07:30:11;;;;;;;48.80;24.77;;;;;;;-3.80;100.00;97369.03;5001393;28;20136;-73
2024/01/22 07:32:37;;;;;;;47.25;24.95;;;;;;;-3.90;100.00;97377.81;5001898;28;20897;-74
2024/01/22 07:35:10;;;;;;;54.20;28.05;;;;;;;-4.02;100.00;97378.00;4998372;28;20049;-73
2024/01/22 07:37:46;;;;;;;75.78;41.75;;;;;;;-4.20;100.00;97381.84;4998823;28;20113;-72
2024/01/22 07:40:13;;;;;;;56.75;29.85;;;;;;;-4.15;100.00;97383.78;5002843;28;20195;-74
2024/01/22 07:42:41;;;;;;;51.97;28.40;;;;;;;-4.05;100.00;97391.91;5001115;28;20108;-74
2024/01/22 07:45:08;;;;;;;70.22;34.30;;;;;;;-4.06;100.00;97377.69;4992977;28;20061;-72
2024/01/22 07:47:34;;;;;;;67.22;33.88;;;;;;;-3.82;100.00;97385.34;5020931;28;20044;-73
2024/01/22 07:49:59;;;;;;;69.32;32.55;;;;;;;-3.71;100.00;97386.22;4991044;28;20075;-73
2024/01/22 07:52:25;;;;;;;65.40;33.47;;;;;;;-3.64;100.00;97384.13;4999979;28;20077;-73
2024/01/22 07:54:50;;;;;;;69.97;35.05;;;;;;;-3.39;100.00;97385.38;4998682;28;20118;-73
2024/01/22 07:57:16;;;;;;;64.60;33.90;;;;;;;-3.31;100.00;97401.75;5007605;28;20129;-75
2024/01/22 07:59:42;;;;;;;66.90;35.10;;;;;;;-3.24;100.00;97414.09;5002440;28;20074;-74
2024/01/22 08:02:08;;;;;;;63.55;31.83;;;;;;;-3.13;100.00;97397.84;4996791;28;20132;-75
2024/01/22 08:04:34;;;;;;;70.00;34.55;;;;;;;-3.07;100.00;97398.66;4998970;28;20169;-74
2024/01/22 08:07:00;;;;;;;103.93;35.75;;;;;;;-2.96;100.00;97407.56;5005528;28;20088;-75
2024/01/22 08:09:27;;;;;;;109.00;34.03;;;;;;;-2.86;100.00;97399.56;4981225;28;20050;-74
2024/01/22 08:11:52;;;;;;;84.00;31.50;;;;;;;-2.65;100.00;97396.94;4985970;28;20042;-75
2024/01/22 08:14:18;;;;;;;84.85;32.75;;;;;;;-2.47;100.00;97409.84;4987964;28;20060;-74
2024/01/22 08:16:44;;;;;;;77.10;32.88;;;;;;;-2.40;100.00;97409.59;4986540;28;20050;-75
2024/01/22 08:19:10;;;;;;;69.80;35.55;;;;;;;-2.19;100.00;97399.72;4979137;28;20050;-75
2024/01/22 08:21:36;;;;;;;186.32;82.30;;;;;;;-2.22;100.00;97397.56;4970645;28;20481;-74
2024/01/22 08:24:01;;;;;;;68.22;36.97;;;;;;;-2.37;100.00;97412.56;4985657;28;20045;-73
2024/01/22 08:26:27;;;;;;;61.78;31.40;;;;;;;-2.32;100.00;97399.16;4980406;28;20046;-76
2024/01/22 08:28:55;;;;;;;72.45;40.45;;;;;;;-2.54;100.00;97401.25;4995299;28;20043;-75
2024/01/22 08:31:21;;;;;;;75.55;39.42;;;;;;;-2.56;100.00;97409.56;4978336;28;20183;-75
2024/01/22 08:33:49;;;;;;;69.95;35.40;;;;;;;-2.37;100.00;97409.88;4994072;28;20136;-76
2024/01/22 08:36:14;;;;;;;62.92;35.25;;;;;;;-2.26;100.00;97385.75;4983408;28;20053;-75
2024/01/22 08:38:40;;;;;;;60.97;33.25;;;;;;;-2.11;100.00;97385.75;4988832;28;20054;-76
2024/01/22 08:41:08;;;;;;;60.30;34.38;;;;;;;-1.89;100.00;97382.00;4982602;28;20576;-73
2024/01/22 08:43:33;;;;;;;59.78;32.05;;;;;;;-1.75;100.00;97375.84;4988502;28;20084;-74
2024/01/22 08:45:59;;;;;;;67.85;37.53;;;;;;;-1.85;100.00;97375.84;4990070;28;20329;-74
2024/01/22 08:48:25;;;;;;;61.50;32.42;;;;;;;-1.61;100.00;97367.19;4998004;28;20049;-75
2024/01/22 08:50:51;;;;;;;63.35;34.25;;;;;;;-1.43;100.00;97374.69;4991329;28;20038;-75
2024/01/22 08:53:16;;;;;;;56.45;31.20;;;;;;;-1.18;100.00;97370.31;4965048;28;20046;-75
2024/01/22 08:55:42;;;;;;;54.90;29.90;;;;;;;-0.95;100.00;97368.91;4990022;28;20056;-73
2024/01/22 08:58:09;;;;;;;52.15;29.38;;;;;;;-0.86;100.00;97363.75;4972411;28;20101;-74
2024/01/22 09:00:35;;;;;;;57.10;28.77;;;;;;;-0.75;100.00;97361.81;4986754;28;20035;-75
2024/01/22 09:03:00;;;;;;;50.90;27.30;;;;;;;-0.68;100.00;97352.34;4997487;28;20050;-75
2024/01/22 09:05:26;;;;;;;49.08;27.00;;;;;;;-0.62;100.00;97350.44;4984840;28;20054;-75
2024/01/22 09:07:51;;;;;;;45.58;25.92;;;;;;;-0.44;100.00;97354.38;4998862;28;20038;-75
2024/01/22 09:10:17;;;;;;;52.00;27.23;;;;;;;-0.53;100.00;97338.00;4992281;28;20052;-74
2024/01/22 09:12:45;;;;;;;50.55;26.08;;;;;;;-0.49;100.00;97333.66;4991082;28;20405;-75
2024/01/22 09:15:10;;;;;;;45.38;26.10;;;;;;;-0.70;100.00;97332.19;4985877;28;20104;-73
2024/01/22 09:17:36;;;;;;;55.20;29.33;;;;;;;-0.83;100.00;97337.13;4997042;28;20042;-74
2024/01/22 09:20:04;;;;;;;52.75;28.15;;;;;;;-0.54;100.00;97349.03;4986614;28;20046;-74
2024/01/22 09:22:30;;;;;;;51.42;29.65;;;;;;;-0.30;100.00;97341.09;4990577;28;20385;-73
2024/01/22 09:24:55;;;;;;;51.88;28.17;;;;;;;-0.13;100.00;97330.72;4992995;28;20045;-74
2024/01/22 09:27:21;;;;;;;47.05;27.33;;;;;;;0.02;100.00;97328.97;4988834;28;20551;-75
2024/01/22 09:29:46;;;;;;;38.70;22.27;;;;;;;0.21;100.00;97316.41;4999814;28;20052;-74
2024/01/22 09:32:13;;;;;;;38.42;21.10;;;;;;;0.23;100.00;97319.63;4999782;28;20049;-73
2024/01/22 09:34:39;;;;;;;42.72;23.85;;;;;;;0.37;100.00;97334.03;5003367;28;20059;-76
2024/01/22 09:37:05;;;;;;;34.15;21.65;;;;;;;0.57;100.00;97335.72;4990261;28;20100;-73
2024/01/22 09:39:31;;;;;;;38.75;21.92;;;;;;;0.60;100.00;97323.56;4997341;28;20069;-75
2024/01/22 09:41:57;;;;;;;40.28;23.05;;;;;;;0.68;100.00;97309.44;4989739;28;20046;-76
2024/01/22 09:44:24;;;;;;;37.88;22.02;;;;;;;0.75;100.00;97298.31;4987948;28;20119;-75
2024/01/22 09:46:50;;;;;;;36.28;22.30;;;;;;;0.82;100.00;97293.38;4998721;28;20105;-75
2024/01/22 09:49:16;;;;;;;38.15;22.10;;;;;;;0.89;100.00;97285.75;4986351;28;20135;-75
2024/01/22 09:51:44;;;;;;;40.03;21.08;;;;;;;0.88;100.00;97286.03;4994332;28;20141;-75
2024/01/22 09:54:12;;;;;;;42.20;22.88;;;;;;;1.28;100.00;97270.41;5001311;28;20041;-75
2024/01/22 09:56:38;;;;;;;38.25;21.88;;;;;;;1.38;100.00;97261.34;4988115;28;20043;-74
2024/01/22 09:59:30;;;;;;;35.80;21.88;;;;;;;1.34;100.00;97258.44;4986219;28;20049;-75
2024/01/22 10:01:55;;;;;;;36.78;22.60;;;;;;;1.27;100.00;97261.47;4974327;28;20029;-75
2024/01/22 10:04:26;;;;;;;37.35;23.63;;;;;;;1.32;100.00;97250.63;4998138;28;20565;-74
2024/01/22 10:06:52;;;;;;;48.08;24.30;;;;;;;1.72;100.00;97236.75;4998838;28;20041;-75
2024/01/22 10:09:18;;;;;;;35.55;20.02;;;;;;;2.13;100.00;97235.25;4967789;28;20046;-75
2024/01/22 10:11:44;;;;;;;27.60;16.83;;;;;;;2.58;100.00;97230.88;5002787;28;20072;-75
2024/01/22 10:14:10;;;;;;;31.10;16.98;;;;;;;2.86;100.00;97217.28;4988152;28;20073;-74
2024/01/22 10:16:39;;;;;;;23.02;14.98;;;;;;;2.50;100.00;97218.03;4999366;28;20505;-75
2024/01/22 10:19:07;;;;;;;26.30;16.85;;;;;;;3.16;100.00;97215.03;5006648;28;20041;-76
2024/01/22 10:21:36;;;;;;;29.30;16.27;;;;;;;3.51;100.00;97218.00;4997684;28;20049;-74
2024/01/22 10:24:06;;;;;;;28.42;16.83;;;;;;;3.61;100.00;97217.75;4988027;28;20106;-76
2024/01/22 10:26:32;;;;;;;24.38;16.83;;;;;;;3.62;100.00;97213.97;4999073;28;20038;-74
2024/01/22 10:29:17;;;;;;;24.63;15.32;;;;;;;3.60;100.00;97211.56;4998632;28;20045;-75
2024/01/22 10:31:56;;;;;;;24.73;15.82;;;;;;;3.44;100.00;97202.19;4996687;28;20215;-74
2024/01/22 10:34:29;;;;;;;23.30;16.53;;;;;;;3.60;100.00;97187.16;4990663;28;20213;-75
2024/01/22 10:37:06;;;;;;;24.88;16.73;;;;;;;3.70;100.00;97172.56;5036388;28;20281;-74
2024/01/22 10:39:32;;;;;;;26.60;17.45;;;;;;;4.16;100.00;97165.94;5003620;28;20046;-74
2024/01/22 10:42:09;;;;;;;28.70;17.17;;;;;;;4.65;100.00;97149.63;4999135;28;20030;-72
2024/01/22 10:44:38;;;;;;;30.33;16.88;;;;;;;5.07;100.00;97139.09;4984315;28;20050;-75
2024/01/22 10:47:05;;;;;;;24.88;16.33;;;;;;;5.20;100.00;97150.91;4979445;28;20065;-74
2024/01/22 10:49:32;;;;;;;20.90;15.30;;;;;;;5.82;100.00;97151.66;4987110;28;20050;-74
2024/01/22 10:51:59;;;;;;;22.88;15.75;;;;;;;5.53;100.00;97140.34;4991824;28;20544;-75
2024/01/22 10:54:26;;;;;;;23.65;15.70;;;;;;;4.90;100.00;97122.84;4994206;28;20057;-76
2024/01/22 10:57:01;;;;;;;22.20;14.82;;;;;;;4.84;100.00;97124.09;4990099;28;20042;-76
2024/01/22 10:59:28;;;;;;;22.98;14.63;;;;;;;4.54;100.00;97104.94;4983472;28;20047;-76
2024/01/22 11:01:54;;;;;;;20.15;13.00;;;;;;;4.72;100.00;97111.97;4987403;28;20034;-77
2024/01/22 11:04:27;;;;;;;22.08;15.63;;;;;;;4.67;100.00;97103.97;4999389;28;20073;-76